QTR36P OTHH-LTFM
Flight info
| Callsign | QTR36P |
|---|---|
| Flight time | N/A |
| Altitude | 29000 |
| Route | DATRI L564 MIGMA/N0522F280 M628 AMBAG/N0500F360 M321 KSA T503 OVANO L768 FIRAS R655 KTN R785 NIKAS L619 VESAR UB545 MUT UL619 OSVEL UB545 KFK UM855 SISPI |
| Aircraft | A35K/H-SDE2E3GHIJ3J4J5LM1ORWXY/LB1D1 |
Departure
| Time | 2026-05-06 09:25 |
|---|---|
| Airport | Hamad International Airport (OTHH) |
Arrival
| Time | N/A |
|---|---|
| Airport | İstanbul Airport (LTFM) |
| Time | Latitude | Longitude | Altitude | Speed | Heading |
|---|---|---|---|---|---|
| 2026-05-06 08:58 | 25.26592 | 51.61036 | 36 ft | 0 kts | 68° |
| 2026-05-06 09:07 | 25.26587 | 51.61022 | 35 ft | 4 kts | 68° |
| 2026-05-06 09:07 | 25.26577 | 51.60995 | 32 ft | 3 kts | 68° |
| 2026-05-06 09:07 | 25.26568 | 51.60973 | 31 ft | 4 kts | 54° |
| 2026-05-06 09:07 | 25.26550 | 51.60955 | 32 ft | 4 kts | 10° |
| 2026-05-06 09:08 | 25.26527 | 51.60958 | 34 ft | 4 kts | 338° |
| 2026-05-06 09:08 | 25.26502 | 51.60970 | 33 ft | 4 kts | 338° |
| 2026-05-06 09:08 | 25.26497 | 51.60972 | 34 ft | 0 kts | 338° |
| 2026-05-06 09:11 | 25.26507 | 51.60967 | 36 ft | 3 kts | 338° |
| 2026-05-06 09:11 | 25.26542 | 51.60951 | 36 ft | 7 kts | 333° |
| 2026-05-06 09:12 | 25.26580 | 51.60910 | 36 ft | 8 kts | 301° |
| 2026-05-06 09:12 | 25.26607 | 51.60846 | 36 ft | 10 kts | 292° |
| 2026-05-06 09:12 | 25.26636 | 51.60771 | 36 ft | 12 kts | 292° |
| 2026-05-06 09:12 | 25.26668 | 51.60683 | 36 ft | 13 kts | 292° |
| 2026-05-06 09:13 | 25.26683 | 51.60610 | 36 ft | 7 kts | 268° |
| 2026-05-06 09:13 | 25.26668 | 51.60552 | 36 ft | 9 kts | 248° |
| 2026-05-06 09:13 | 25.26642 | 51.60483 | 36 ft | 11 kts | 248° |
| 2026-05-06 09:13 | 25.26619 | 51.60406 | 35 ft | 10 kts | 269° |
| 2026-05-06 09:14 | 25.26667 | 51.60358 | 35 ft | 10 kts | 335° |
| 2026-05-06 09:14 | 25.26737 | 51.60324 | 35 ft | 12 kts | 336° |
| 2026-05-06 09:14 | 25.26817 | 51.60287 | 35 ft | 13 kts | 339° |
| 2026-05-06 09:14 | 25.26904 | 51.60250 | 35 ft | 10 kts | 339° |
| 2026-05-06 09:15 | 25.26956 | 51.60240 | 35 ft | 8 kts | 11° |
| 2026-05-06 09:15 | 25.26983 | 51.60272 | 34 ft | 5 kts | 64° |
| 2026-05-06 09:15 | 25.27000 | 51.60315 | 36 ft | 7 kts | 67° |
| 2026-05-06 09:15 | 25.27019 | 51.60367 | 36 ft | 9 kts | 68° |
| 2026-05-06 09:16 | 25.27052 | 51.60462 | 36 ft | 16 kts | 69° |
| 2026-05-06 09:16 | 25.27095 | 51.60581 | 36 ft | 17 kts | 68° |
| 2026-05-06 09:16 | 25.27140 | 51.60706 | 36 ft | 18 kts | 68° |
| 2026-05-06 09:16 | 25.27188 | 51.60836 | 36 ft | 19 kts | 67° |
| 2026-05-06 09:17 | 25.27239 | 51.60970 | 36 ft | 19 kts | 67° |
| 2026-05-06 09:17 | 25.27290 | 51.61109 | 36 ft | 19 kts | 68° |
| 2026-05-06 09:17 | 25.27328 | 51.61212 | 36 ft | 12 kts | 68° |
| 2026-05-06 09:17 | 25.27360 | 51.61302 | 36 ft | 13 kts | 68° |
| 2026-05-06 09:18 | 25.27396 | 51.61400 | 36 ft | 14 kts | 68° |
| 2026-05-06 09:18 | 25.27419 | 51.61463 | 35 ft | 6 kts | 68° |
| 2026-05-06 09:18 | 25.27426 | 51.61511 | 35 ft | 7 kts | 104° |
| 2026-05-06 09:18 | 25.27391 | 51.61548 | 35 ft | 9 kts | 148° |
| 2026-05-06 09:19 | 25.27289 | 51.61600 | 35 ft | 22 kts | 157° |
| 2026-05-06 09:19 | 25.27144 | 51.61662 | 35 ft | 23 kts | 158° |
| 2026-05-06 09:19 | 25.26995 | 51.61726 | 35 ft | 24 kts | 159° |
| 2026-05-06 09:19 | 25.26840 | 51.61797 | 35 ft | 24 kts | 158° |
| 2026-05-06 09:20 | 25.26686 | 51.61865 | 35 ft | 22 kts | 158° |
| 2026-05-06 09:20 | 25.26543 | 51.61929 | 35 ft | 23 kts | 158° |
| 2026-05-06 09:20 | 25.26393 | 51.61996 | 36 ft | 23 kts | 158° |
| 2026-05-06 09:20 | 25.26247 | 51.62061 | 36 ft | 24 kts | 158° |
| 2026-05-06 09:21 | 25.26088 | 51.62132 | 36 ft | 25 kts | 158° |
| 2026-05-06 09:21 | 25.25925 | 51.62202 | 36 ft | 25 kts | 159° |
| 2026-05-06 09:21 | 25.25773 | 51.62267 | 35 ft | 20 kts | 159° |
| 2026-05-06 09:21 | 25.25662 | 51.62315 | 35 ft | 17 kts | 159° |
| 2026-05-06 09:22 | 25.25575 | 51.62372 | 35 ft | 7 kts | 117° |
| 2026-05-06 09:22 | 25.25581 | 51.62427 | 34 ft | 8 kts | 60° |
| 2026-05-06 09:22 | 25.25609 | 51.62491 | 33 ft | 11 kts | 64° |
| 2026-05-06 09:22 | 25.25638 | 51.62557 | 32 ft | 0 kts | 64° |
| 2026-05-06 09:23 | 25.25643 | 51.62567 | 32 ft | 3 kts | 64° |
| 2026-05-06 09:23 | 25.25654 | 51.62591 | 32 ft | 4 kts | 64° |
| 2026-05-06 09:23 | 25.25670 | 51.62609 | 32 ft | 2 kts | 22° |
| 2026-05-06 09:23 | 25.25691 | 51.62609 | 32 ft | 4 kts | 353° |
| 2026-05-06 09:24 | 25.25727 | 51.62596 | 32 ft | 11 kts | 340° |
| 2026-05-06 09:24 | 25.25928 | 51.62511 | 33 ft | 61 kts | 337° |
| 2026-05-06 09:24 | 25.26517 | 51.62250 | 33 ft | 120 kts | 337° |
| 2026-05-06 09:24 | 25.27458 | 51.61835 | 34 ft | 170 kts | 337° |
| 2026-05-06 09:25 | 25.28606 | 51.61260 | 471 ft | 179 kts | 339° |
| 2026-05-06 09:25 | 25.29740 | 51.60738 | 1077 ft | 182 kts | 340° |
| 2026-05-06 09:25 | 25.30934 | 51.60212 | 1661 ft | 188 kts | 340° |
| 2026-05-06 09:25 | 25.32198 | 51.59692 | 2008 ft | 198 kts | 342° |
| 2026-05-06 09:26 | 25.33554 | 51.59223 | 2284 ft | 209 kts | 351° |
| 2026-05-06 09:26 | 25.35014 | 51.59499 | 2483 ft | 223 kts | 24° |
| 2026-05-06 09:26 | 25.36479 | 51.60209 | 2770 ft | 237 kts | 25° |
| 2026-05-06 09:26 | 25.38043 | 51.60902 | 3115 ft | 251 kts | 17° |
| 2026-05-06 09:27 | 25.39757 | 51.61386 | 3527 ft | 261 kts | 13° |
| 2026-05-06 09:27 | 25.41558 | 51.61834 | 3867 ft | 266 kts | 13° |
| 2026-05-06 09:27 | 25.43374 | 51.62288 | 3968 ft | 268 kts | 13° |
| 2026-05-06 09:27 | 25.45199 | 51.62749 | 3972 ft | 268 kts | 13° |
| 2026-05-06 09:28 | 25.47016 | 51.63214 | 3968 ft | 268 kts | 13° |
| 2026-05-06 09:28 | 25.48835 | 51.63669 | 3965 ft | 267 kts | 13° |
| 2026-05-06 09:28 | 25.50682 | 51.63935 | 4073 ft | 270 kts | 0° |
| 2026-05-06 09:28 | 25.52520 | 51.63581 | 4512 ft | 275 kts | 339° |
| 2026-05-06 09:29 | 25.54105 | 51.62397 | 5141 ft | 277 kts | 313° |
| 2026-05-06 09:29 | 25.55011 | 51.60515 | 5709 ft | 283 kts | 283° |
| 2026-05-06 09:29 | 25.54975 | 51.58339 | 6293 ft | 286 kts | 259° |
| 2026-05-06 09:29 | 25.54502 | 51.56207 | 6743 ft | 289 kts | 256° |
| 2026-05-06 09:30 | 25.53977 | 51.54035 | 6938 ft | 292 kts | 256° |
| 2026-05-06 09:30 | 25.53458 | 51.51855 | 6964 ft | 292 kts | 257° |
| 2026-05-06 09:30 | 25.52950 | 51.49665 | 6963 ft | 294 kts | 257° |
| 2026-05-06 09:30 | 25.52448 | 51.47471 | 6964 ft | 294 kts | 257° |
| 2026-05-06 09:31 | 25.51956 | 51.45312 | 6968 ft | 293 kts | 257° |
| 2026-05-06 09:31 | 25.51461 | 51.43124 | 6971 ft | 292 kts | 257° |
| 2026-05-06 09:31 | 25.50964 | 51.40930 | 6966 ft | 292 kts | 257° |
| 2026-05-06 09:31 | 25.50470 | 51.38740 | 6969 ft | 293 kts | 257° |
| 2026-05-06 09:32 | 25.49973 | 51.36546 | 6965 ft | 293 kts | 257° |
| 2026-05-06 09:32 | 25.49482 | 51.34374 | 6968 ft | 294 kts | 257° |
| 2026-05-06 09:32 | 25.48988 | 51.32182 | 6968 ft | 292 kts | 256° |
| 2026-05-06 09:32 | 25.48495 | 51.30004 | 6972 ft | 291 kts | 256° |
| 2026-05-06 09:33 | 25.47857 | 51.27878 | 6966 ft | 291 kts | 243° |
| 2026-05-06 09:33 | 25.46574 | 51.26172 | 6968 ft | 290 kts | 215° |
| 2026-05-06 09:33 | 25.44729 | 51.25345 | 6989 ft | 289 kts | 186° |
| 2026-05-06 09:33 | 25.42720 | 51.25246 | 7010 ft | 290 kts | 179° |
| 2026-05-06 09:34 | 25.40685 | 51.25286 | 7339 ft | 294 kts | 178° |
| 2026-05-06 09:34 | 25.38658 | 51.25329 | 7986 ft | 294 kts | 179° |
| 2026-05-06 09:34 | 25.36605 | 51.25368 | 8653 ft | 295 kts | 180° |
| 2026-05-06 09:34 | 25.34543 | 51.25400 | 9298 ft | 297 kts | 180° |
| 2026-05-06 09:35 | 25.32460 | 51.25429 | 9931 ft | 300 kts | 181° |
| 2026-05-06 09:35 | 25.30328 | 51.25456 | 10289 ft | 314 kts | 181° |
| 2026-05-06 09:35 | 25.28085 | 51.25497 | 10551 ft | 330 kts | 178° |
| 2026-05-06 09:35 | 25.25775 | 51.25987 | 10793 ft | 346 kts | 162° |
| 2026-05-06 09:36 | 25.23465 | 51.26921 | 11028 ft | 361 kts | 160° |
| 2026-05-06 09:36 | 25.21085 | 51.27952 | 11279 ft | 374 kts | 159° |
| 2026-05-06 09:36 | 25.18655 | 51.28999 | 11503 ft | 385 kts | 160° |
| 2026-05-06 09:36 | 25.16111 | 51.30084 | 11731 ft | 396 kts | 160° |
| 2026-05-06 09:37 | 25.13525 | 51.31181 | 12137 ft | 400 kts | 160° |
| 2026-05-06 09:37 | 25.10904 | 51.32289 | 12628 ft | 403 kts | 161° |
| 2026-05-06 09:37 | 25.08272 | 51.33399 | 13137 ft | 405 kts | 160° |
| 2026-05-06 09:37 | 25.05658 | 51.34502 | 13611 ft | 408 kts | 160° |
| 2026-05-06 09:38 | 25.03000 | 51.35622 | 14050 ft | 411 kts | 160° |
| 2026-05-06 09:38 | 25.00307 | 51.36755 | 14528 ft | 413 kts | 160° |
| 2026-05-06 09:38 | 24.97602 | 51.37892 | 14972 ft | 415 kts | 160° |
| 2026-05-06 09:38 | 24.94919 | 51.39019 | 15375 ft | 418 kts | 160° |
| 2026-05-06 09:39 | 24.92274 | 51.40388 | 15812 ft | 422 kts | 149° |
| 2026-05-06 09:39 | 24.89821 | 51.42192 | 16270 ft | 424 kts | 145° |
| 2026-05-06 09:39 | 24.87408 | 51.44092 | 16676 ft | 428 kts | 145° |
| 2026-05-06 09:39 | 24.84970 | 51.46014 | 16997 ft | 432 kts | 145° |
| 2026-05-06 09:40 | 24.82517 | 51.47940 | 17446 ft | 433 kts | 145° |
| 2026-05-06 09:40 | 24.80058 | 51.49865 | 17921 ft | 434 kts | 145° |
| 2026-05-06 09:40 | 24.75052 | 51.53667 | 18544 ft | 441 kts | 150° |
| 2026-05-06 09:41 | 24.72268 | 51.55080 | 18898 ft | 442 kts | 163° |
| 2026-05-06 09:41 | 24.69256 | 51.55773 | 19230 ft | 442 kts | 177° |
| 2026-05-06 09:41 | 24.66189 | 51.55697 | 19619 ft | 440 kts | 188° |
| 2026-05-06 09:41 | 24.63161 | 51.55179 | 19998 ft | 441 kts | 192° |
| 2026-05-06 09:42 | 24.60179 | 51.54502 | 20345 ft | 443 kts | 194° |
| 2026-05-06 09:42 | 24.57170 | 51.53744 | 20721 ft | 445 kts | 195° |
| 2026-05-06 09:42 | 24.54144 | 51.52966 | 21087 ft | 447 kts | 195° |
| 2026-05-06 09:42 | 24.51102 | 51.52195 | 21471 ft | 449 kts | 194° |
| 2026-05-06 09:43 | 24.48036 | 51.51437 | 21859 ft | 451 kts | 194° |
| 2026-05-06 09:43 | 24.44962 | 51.50695 | 22239 ft | 453 kts | 194° |
| 2026-05-06 09:43 | 24.41905 | 51.49968 | 22619 ft | 455 kts | 194° |
| 2026-05-06 09:43 | 24.38786 | 51.49233 | 22938 ft | 458 kts | 194° |
| 2026-05-06 09:44 | 24.35645 | 51.48496 | 23276 ft | 461 kts | 194° |
| 2026-05-06 09:44 | 24.32505 | 51.47760 | 23597 ft | 463 kts | 194° |
| 2026-05-06 09:44 | 24.29345 | 51.47019 | 23917 ft | 464 kts | 194° |
| 2026-05-06 09:44 | 24.26181 | 51.46277 | 24243 ft | 465 kts | 194° |
| 2026-05-06 09:45 | 24.23035 | 51.45597 | 24580 ft | 468 kts | 191° |
| 2026-05-06 09:45 | 24.19782 | 51.45283 | 24916 ft | 471 kts | 185° |
| 2026-05-06 09:45 | 24.16485 | 51.45177 | 25260 ft | 473 kts | 184° |
| 2026-05-06 09:45 | 24.13180 | 51.45151 | 25620 ft | 476 kts | 182° |
| 2026-05-06 09:46 | 24.09855 | 51.45168 | 25978 ft | 478 kts | 182° |
| 2026-05-06 09:46 | 24.06522 | 51.45199 | 26365 ft | 479 kts | 182° |
| 2026-05-06 09:46 | 24.03179 | 51.45231 | 26752 ft | 481 kts | 182° |
| 2026-05-06 09:46 | 23.99829 | 51.45258 | 27142 ft | 483 kts | 182° |
| 2026-05-06 09:47 | 23.96501 | 51.45277 | 27538 ft | 485 kts | 182° |
| 2026-05-06 09:47 | 23.93117 | 51.45293 | 27898 ft | 486 kts | 182° |
| 2026-05-06 09:47 | 23.89724 | 51.45305 | 28265 ft | 488 kts | 182° |
| 2026-05-06 09:47 | 23.86315 | 51.45313 | 28593 ft | 491 kts | 182° |
| 2026-05-06 09:48 | 23.82882 | 51.45323 | 28781 ft | 495 kts | 182° |
| 2026-05-06 09:48 | 23.79419 | 51.45333 | 28803 ft | 500 kts | 182° |
| 2026-05-06 09:48 | 23.73614 | 51.45353 | 28796 ft | 502 kts | 182° |
| 2026-05-06 09:49 | 23.66633 | 51.45379 | 28797 ft | 502 kts | 182° |
| 2026-05-06 09:49 | 23.58506 | 51.45407 | 28793 ft | 502 kts | 182° |
| 2026-05-06 09:50 | 23.52650 | 51.45427 | 28786 ft | 502 kts | 182° |
| 2026-05-06 09:50 | 23.45657 | 51.45457 | 28787 ft | 502 kts | 182° |
| 2026-05-06 09:51 | 23.38704 | 51.45560 | 28779 ft | 502 kts | 181° |
| 2026-05-06 09:51 | 23.31711 | 51.45685 | 28776 ft | 503 kts | 181° |
| 2026-05-06 09:52 | 23.24713 | 51.45802 | 28770 ft | 503 kts | 182° |
| 2026-05-06 09:52 | 23.17709 | 51.45909 | 28774 ft | 502 kts | 182° |
| 2026-05-06 09:53 | 23.10709 | 51.46002 | 28776 ft | 503 kts | 182° |
| 2026-05-06 09:53 | 23.03740 | 51.46094 | 28767 ft | 503 kts | 182° |
| 2026-05-06 09:54 | 22.96724 | 51.46190 | 28766 ft | 503 kts | 182° |
| 2026-05-06 09:54 | 22.89899 | 51.45217 | 28766 ft | 496 kts | 200° |
| 2026-05-06 09:55 | 22.86763 | 51.43699 | 28762 ft | 492 kts | 212° |
| 2026-05-06 09:55 | 22.84018 | 51.41502 | 28764 ft | 489 kts | 224° |
| 2026-05-06 09:55 | 22.81790 | 51.38721 | 28764 ft | 488 kts | 236° |
| 2026-05-06 09:55 | 22.80177 | 51.35494 | 28764 ft | 488 kts | 248° |
| 2026-05-06 09:56 | 22.79241 | 51.31959 | 28763 ft | 489 kts | 259° |
| 2026-05-06 09:56 | 22.79023 | 51.28288 | 28765 ft | 491 kts | 271° |
| 2026-05-06 09:56 | 22.79527 | 51.24656 | 28772 ft | 494 kts | 283° |
| 2026-05-06 09:56 | 22.80757 | 51.21165 | 28766 ft | 498 kts | 295° |
| 2026-05-06 09:57 | 22.84451 | 51.14770 | 28773 ft | 499 kts | 295° |
| 2026-05-06 09:57 | 22.86788 | 51.07739 | 28774 ft | 494 kts | 278° |
| 2026-05-06 09:58 | 22.87545 | 51.00353 | 28772 ft | 492 kts | 273° |
| 2026-05-06 09:58 | 22.88020 | 50.92941 | 28775 ft | 492 kts | 272° |
| 2026-05-06 09:59 | 22.88233 | 50.89279 | 28916 ft | 491 kts | 272° |
| 2026-05-06 09:59 | 22.88455 | 50.85582 | 29380 ft | 490 kts | 272° |
| 2026-05-06 09:59 | 22.88683 | 50.81911 | 29949 ft | 485 kts | 272° |
| 2026-05-06 09:59 | 22.88915 | 50.78275 | 30447 ft | 481 kts | 272° |
| 2026-05-06 10:00 | 22.89149 | 50.74658 | 30882 ft | 479 kts | 272° |
| 2026-05-06 10:00 | 22.89383 | 50.71068 | 31276 ft | 477 kts | 272° |
| 2026-05-06 10:00 | 22.89616 | 50.67484 | 31671 ft | 475 kts | 272° |
| 2026-05-06 10:00 | 22.89847 | 50.63920 | 32063 ft | 473 kts | 272° |
| 2026-05-06 10:01 | 22.90077 | 50.60367 | 32444 ft | 471 kts | 272° |
| 2026-05-06 10:01 | 22.90304 | 50.56829 | 32843 ft | 469 kts | 272° |
| 2026-05-06 10:01 | 22.90527 | 50.53348 | 33214 ft | 467 kts | 272° |
| 2026-05-06 10:01 | 22.90751 | 50.49831 | 33570 ft | 466 kts | 272° |
| 2026-05-06 10:02 | 22.90974 | 50.46321 | 33893 ft | 464 kts | 272° |
| 2026-05-06 10:02 | 22.91195 | 50.42829 | 34152 ft | 464 kts | 272° |
| 2026-05-06 10:02 | 22.91415 | 50.39334 | 34382 ft | 464 kts | 272° |
| 2026-05-06 10:02 | 22.91631 | 50.35889 | 34603 ft | 463 kts | 272° |
| 2026-05-06 10:03 | 22.91850 | 50.32395 | 34847 ft | 463 kts | 272° |
| 2026-05-06 10:03 | 22.92068 | 50.28902 | 35083 ft | 462 kts | 272° |
| 2026-05-06 10:03 | 22.92285 | 50.25412 | 35318 ft | 462 kts | 272° |
| 2026-05-06 10:03 | 22.92501 | 50.21933 | 35545 ft | 461 kts | 272° |
| 2026-05-06 10:04 | 22.92713 | 50.18501 | 35722 ft | 462 kts | 272° |
| 2026-05-06 10:04 | 22.92927 | 50.15014 | 35772 ft | 465 kts | 272° |
| 2026-05-06 10:04 | 22.93358 | 50.07959 | 35772 ft | 468 kts | 272° |
| 2026-05-06 10:05 | 22.93785 | 50.00951 | 35776 ft | 468 kts | 272° |
| 2026-05-06 10:05 | 22.94210 | 49.93915 | 35774 ft | 468 kts | 272° |
| 2026-05-06 10:06 | 22.94633 | 49.86857 | 35772 ft | 467 kts | 272° |
| 2026-05-06 10:06 | 22.95051 | 49.79824 | 35771 ft | 467 kts | 272° |
| 2026-05-06 10:07 | 22.95464 | 49.72814 | 35778 ft | 467 kts | 271° |
| 2026-05-06 10:07 | 22.95876 | 49.65772 | 35777 ft | 467 kts | 271° |
| 2026-05-06 10:08 | 22.96284 | 49.58760 | 35771 ft | 467 kts | 271° |
| 2026-05-06 10:08 | 22.96690 | 49.51715 | 35777 ft | 467 kts | 271° |
| 2026-05-06 10:09 | 22.97094 | 49.44668 | 35776 ft | 467 kts | 271° |
| 2026-05-06 10:09 | 22.97494 | 49.37623 | 35774 ft | 467 kts | 271° |
| 2026-05-06 10:10 | 22.97888 | 49.30624 | 35779 ft | 467 kts | 271° |
| 2026-05-06 10:10 | 22.98282 | 49.23574 | 35779 ft | 467 kts | 271° |
| 2026-05-06 10:11 | 22.98673 | 49.16532 | 35774 ft | 466 kts | 271° |
| 2026-05-06 10:11 | 22.99058 | 49.09538 | 35778 ft | 466 kts | 271° |
| 2026-05-06 10:12 | 22.99441 | 49.02503 | 35781 ft | 466 kts | 271° |
| 2026-05-06 10:12 | 22.99856 | 48.95527 | 35786 ft | 466 kts | 272° |
| 2026-05-06 10:13 | 23.00448 | 48.88498 | 35786 ft | 466 kts | 273° |
| 2026-05-06 10:13 | 23.01058 | 48.81490 | 35787 ft | 466 kts | 272° |
| 2026-05-06 10:14 | 23.01640 | 48.74470 | 35785 ft | 466 kts | 272° |
| 2026-05-06 10:14 | 23.02198 | 48.67493 | 35787 ft | 466 kts | 272° |
| 2026-05-06 10:15 | 23.02753 | 48.60481 | 35789 ft | 466 kts | 272° |
| 2026-05-06 10:15 | 23.03306 | 48.53468 | 35788 ft | 465 kts | 272° |
| 2026-05-06 10:16 | 23.03852 | 48.46515 | 35793 ft | 465 kts | 272° |
| 2026-05-06 10:16 | 23.04398 | 48.39512 | 35791 ft | 465 kts | 272° |
| 2026-05-06 10:17 | 23.04941 | 48.32515 | 35778 ft | 465 kts | 272° |
| 2026-05-06 10:17 | 23.05481 | 48.25516 | 35778 ft | 465 kts | 272° |
| 2026-05-06 10:18 | 23.06015 | 48.18565 | 35786 ft | 464 kts | 272° |
| 2026-05-06 10:18 | 23.06549 | 48.11573 | 35791 ft | 464 kts | 272° |
| 2026-05-06 10:19 | 23.07078 | 48.04587 | 35788 ft | 464 kts | 272° |
| 2026-05-06 10:19 | 23.07602 | 47.97646 | 35803 ft | 463 kts | 272° |
| 2026-05-06 10:20 | 23.08124 | 47.90688 | 35794 ft | 461 kts | 272° |
| 2026-05-06 10:20 | 23.09114 | 47.83800 | 35801 ft | 465 kts | 283° |
| 2026-05-06 10:21 | 23.11850 | 47.77370 | 35806 ft | 476 kts | 300° |
| 2026-05-06 10:21 | 23.16456 | 47.72104 | 35808 ft | 490 kts | 318° |
| 2026-05-06 10:22 | 23.22143 | 47.68035 | 35825 ft | 495 kts | 323° |
| 2026-05-06 10:22 | 23.28019 | 47.64141 | 35823 ft | 494 kts | 323° |
| 2026-05-06 10:23 | 23.33902 | 47.60226 | 35833 ft | 494 kts | 322° |
| 2026-05-06 10:23 | 23.39748 | 47.56283 | 35832 ft | 494 kts | 322° |
| 2026-05-06 10:24 | 23.45548 | 47.52347 | 35838 ft | 494 kts | 322° |
| 2026-05-06 10:24 | 23.51391 | 47.48383 | 35841 ft | 494 kts | 322° |
| 2026-05-06 10:25 | 23.57198 | 47.44433 | 35852 ft | 494 kts | 322° |
| 2026-05-06 10:25 | 23.63036 | 47.40460 | 35852 ft | 494 kts | 322° |
| 2026-05-06 10:26 | 23.68864 | 47.36491 | 35857 ft | 493 kts | 322° |
| 2026-05-06 10:26 | 23.74692 | 47.32519 | 35859 ft | 493 kts | 322° |
| 2026-05-06 10:27 | 23.80478 | 47.28571 | 35872 ft | 493 kts | 321° |
| 2026-05-06 10:27 | 23.86303 | 47.24592 | 35870 ft | 492 kts | 321° |
| 2026-05-06 10:28 | 23.92107 | 47.20623 | 35876 ft | 492 kts | 321° |
| 2026-05-06 10:28 | 23.97883 | 47.16669 | 35875 ft | 492 kts | 321° |
| 2026-05-06 10:29 | 24.03695 | 47.12686 | 35889 ft | 492 kts | 321° |
| 2026-05-06 10:29 | 24.09509 | 47.08706 | 35884 ft | 493 kts | 322° |
| 2026-05-06 10:30 | 24.15706 | 47.05394 | 35899 ft | 500 kts | 329° |
| 2026-05-06 10:30 | 24.22118 | 47.02379 | 35901 ft | 501 kts | 330° |
| 2026-05-06 10:31 | 24.28561 | 46.99410 | 35915 ft | 501 kts | 330° |
| 2026-05-06 10:31 | 24.34991 | 46.96433 | 35913 ft | 501 kts | 330° |
| 2026-05-06 10:32 | 24.41421 | 46.93440 | 35921 ft | 502 kts | 330° |
| 2026-05-06 10:32 | 24.47857 | 46.90435 | 35931 ft | 502 kts | 330° |
| 2026-05-06 10:33 | 24.54259 | 46.87443 | 35925 ft | 502 kts | 330° |
| 2026-05-06 10:33 | 24.60704 | 46.84429 | 35955 ft | 503 kts | 330° |
| 2026-05-06 10:34 | 24.67124 | 46.81421 | 35961 ft | 503 kts | 330° |
| 2026-05-06 10:34 | 24.73570 | 46.78399 | 35972 ft | 503 kts | 330° |
| 2026-05-06 10:35 | 24.80023 | 46.75373 | 35984 ft | 503 kts | 329° |
| 2026-05-06 10:35 | 24.86443 | 46.72356 | 35993 ft | 504 kts | 329° |
| 2026-05-06 10:36 | 24.92904 | 46.69316 | 35994 ft | 504 kts | 329° |
| 2026-05-06 10:36 | 24.98026 | 46.66395 | 36002 ft | 491 kts | 318° |
| 2026-05-06 10:37 | 25.03237 | 46.61667 | 35992 ft | 481 kts | 310° |
| 2026-05-06 10:37 | 25.08159 | 46.56665 | 35983 ft | 480 kts | 309° |
| 2026-05-06 10:38 | 25.13012 | 46.51649 | 35986 ft | 480 kts | 309° |
| 2026-05-06 10:38 | 25.17908 | 46.46610 | 35982 ft | 480 kts | 309° |
| 2026-05-06 10:39 | 25.22811 | 46.41584 | 35980 ft | 480 kts | 309° |
| 2026-05-06 10:39 | 25.27670 | 46.36603 | 35979 ft | 480 kts | 309° |
| 2026-05-06 10:40 | 25.32573 | 46.31572 | 35988 ft | 479 kts | 309° |
| 2026-05-06 10:40 | 25.37456 | 46.26555 | 35985 ft | 479 kts | 309° |
| 2026-05-06 10:41 | 25.42338 | 46.21532 | 35985 ft | 479 kts | 309° |
| 2026-05-06 10:41 | 25.47230 | 46.16493 | 35998 ft | 479 kts | 308° |
| 2026-05-06 10:42 | 25.52072 | 46.11500 | 35985 ft | 479 kts | 308° |
| 2026-05-06 10:42 | 25.56950 | 46.06463 | 35985 ft | 479 kts | 308° |
| 2026-05-06 10:43 | 25.61823 | 46.01426 | 35985 ft | 479 kts | 308° |
| 2026-05-06 10:44 | 25.69105 | 45.93894 | 35988 ft | 478 kts | 308° |
| 2026-05-06 10:44 | 25.73976 | 45.88839 | 35991 ft | 478 kts | 308° |
| 2026-05-06 10:45 | 25.78838 | 45.83790 | 35991 ft | 478 kts | 308° |
| 2026-05-06 10:45 | 25.83700 | 45.78737 | 35993 ft | 478 kts | 308° |
| 2026-05-06 10:46 | 25.88559 | 45.73687 | 35999 ft | 478 kts | 308° |
| 2026-05-06 10:46 | 25.93390 | 45.68655 | 35999 ft | 478 kts | 308° |
| 2026-05-06 10:47 | 25.98245 | 45.63587 | 35995 ft | 478 kts | 308° |
| 2026-05-06 10:47 | 26.03100 | 45.58513 | 36000 ft | 478 kts | 308° |
| 2026-05-06 10:48 | 26.07910 | 45.53482 | 35997 ft | 477 kts | 308° |
| 2026-05-06 10:48 | 26.12756 | 45.48409 | 36002 ft | 477 kts | 307° |
| 2026-05-06 10:49 | 26.17598 | 45.43335 | 35999 ft | 477 kts | 307° |
| 2026-05-06 10:49 | 26.22402 | 45.38302 | 36002 ft | 477 kts | 307° |
| 2026-05-06 10:50 | 26.27231 | 45.33227 | 35997 ft | 477 kts | 307° |
| 2026-05-06 10:50 | 26.32072 | 45.28139 | 36002 ft | 477 kts | 307° |
| 2026-05-06 10:51 | 26.36879 | 45.23099 | 36000 ft | 477 kts | 307° |
| 2026-05-06 10:51 | 26.41719 | 45.18020 | 36014 ft | 477 kts | 307° |
| 2026-05-06 10:52 | 26.46552 | 45.12941 | 35997 ft | 476 kts | 307° |
| 2026-05-06 10:52 | 26.51377 | 45.07864 | 35996 ft | 476 kts | 307° |
| 2026-05-06 10:53 | 26.56201 | 45.02782 | 36010 ft | 476 kts | 307° |
| 2026-05-06 10:53 | 26.60996 | 44.97729 | 36005 ft | 476 kts | 307° |
| 2026-05-06 10:54 | 26.65828 | 44.92629 | 35996 ft | 476 kts | 307° |
| 2026-05-06 10:54 | 26.70621 | 44.87563 | 35992 ft | 476 kts | 307° |
| 2026-05-06 10:55 | 26.75440 | 44.82463 | 35990 ft | 476 kts | 307° |
| 2026-05-06 10:55 | 26.80253 | 44.77369 | 35991 ft | 476 kts | 306° |
| 2026-05-06 10:56 | 26.85058 | 44.72260 | 35990 ft | 476 kts | 306° |
| 2026-05-06 10:56 | 26.89833 | 44.67174 | 36008 ft | 476 kts | 306° |
| 2026-05-06 10:57 | 26.94640 | 44.62051 | 35998 ft | 476 kts | 306° |
| 2026-05-06 10:57 | 26.99438 | 44.56935 | 35992 ft | 476 kts | 306° |
| 2026-05-06 10:58 | 27.04211 | 44.51841 | 35992 ft | 476 kts | 306° |
| 2026-05-06 10:58 | 27.09006 | 44.46700 | 35994 ft | 476 kts | 306° |
| 2026-05-06 10:59 | 27.13766 | 44.41592 | 36021 ft | 476 kts | 306° |
| 2026-05-06 10:59 | 27.18558 | 44.36453 | 35998 ft | 476 kts | 306° |
| 2026-05-06 11:00 | 27.23357 | 44.31308 | 35998 ft | 476 kts | 306° |
| 2026-05-06 11:00 | 27.28149 | 44.26161 | 36016 ft | 476 kts | 306° |
| 2026-05-06 11:01 | 27.32911 | 44.21041 | 36014 ft | 475 kts | 306° |
| 2026-05-06 11:01 | 27.37686 | 44.15899 | 36001 ft | 475 kts | 306° |
| 2026-05-06 11:02 | 27.42439 | 44.10775 | 36004 ft | 475 kts | 306° |
| 2026-05-06 11:02 | 27.47209 | 44.05627 | 36005 ft | 475 kts | 306° |
| 2026-05-06 11:03 | 27.51985 | 44.00465 | 36019 ft | 475 kts | 306° |
| 2026-05-06 11:03 | 27.56750 | 43.95311 | 36007 ft | 474 kts | 306° |
| 2026-05-06 11:04 | 27.61486 | 43.90179 | 36010 ft | 474 kts | 306° |
| 2026-05-06 11:04 | 27.66252 | 43.85010 | 36009 ft | 474 kts | 306° |
| 2026-05-06 11:05 | 27.70989 | 43.79865 | 36007 ft | 474 kts | 306° |
| 2026-05-06 11:05 | 27.75744 | 43.74694 | 36007 ft | 474 kts | 306° |
| 2026-05-06 11:06 | 27.80500 | 43.69515 | 36007 ft | 474 kts | 306° |
| 2026-05-06 11:06 | 27.85235 | 43.64352 | 36009 ft | 474 kts | 306° |
| 2026-05-06 11:07 | 27.89797 | 43.59012 | 36010 ft | 469 kts | 302° |
| 2026-05-06 11:07 | 27.94179 | 43.53602 | 36009 ft | 469 kts | 302° |
| 2026-05-06 11:08 | 27.98616 | 43.48163 | 36016 ft | 469 kts | 303° |
| 2026-05-06 11:08 | 28.03053 | 43.42783 | 36037 ft | 470 kts | 303° |
| 2026-05-06 11:09 | 28.07530 | 43.37373 | 36018 ft | 469 kts | 303° |
| 2026-05-06 11:09 | 28.11991 | 43.31976 | 36017 ft | 469 kts | 303° |
| 2026-05-06 11:10 | 28.16454 | 43.26564 | 36017 ft | 469 kts | 303° |
| 2026-05-06 11:10 | 28.20917 | 43.21145 | 36031 ft | 469 kts | 303° |
| 2026-05-06 11:11 | 28.25342 | 43.15766 | 36024 ft | 469 kts | 303° |
| 2026-05-06 11:11 | 28.29799 | 43.10339 | 36029 ft | 469 kts | 303° |
| 2026-05-06 11:12 | 28.34244 | 43.04921 | 36030 ft | 469 kts | 303° |
| 2026-05-06 11:12 | 28.38676 | 42.99511 | 36037 ft | 469 kts | 303° |
| 2026-05-06 11:13 | 28.43119 | 42.94081 | 36035 ft | 469 kts | 303° |
| 2026-05-06 11:13 | 28.47566 | 42.88638 | 36030 ft | 469 kts | 303° |
| 2026-05-06 11:14 | 28.52008 | 42.83196 | 36030 ft | 468 kts | 303° |
| 2026-05-06 11:14 | 28.56408 | 42.77799 | 36257 ft | 466 kts | 302° |
| 2026-05-06 11:14 | 28.58611 | 42.75098 | 36620 ft | 462 kts | 302° |
| 2026-05-06 11:15 | 28.60795 | 42.72419 | 36956 ft | 460 kts | 302° |
| 2026-05-06 11:15 | 28.62966 | 42.69750 | 37195 ft | 459 kts | 302° |
| 2026-05-06 11:15 | 28.65106 | 42.67116 | 37408 ft | 458 kts | 302° |
| 2026-05-06 11:15 | 28.67270 | 42.64451 | 37587 ft | 458 kts | 302° |
| 2026-05-06 11:16 | 28.69430 | 42.61787 | 37785 ft | 457 kts | 301° |
| 2026-05-06 11:16 | 28.71590 | 42.59119 | 37987 ft | 457 kts | 301° |
| 2026-05-06 11:16 | 28.73754 | 42.56441 | 38045 ft | 460 kts | 301° |
| 2026-05-06 11:17 | 28.78108 | 42.51047 | 38044 ft | 463 kts | 301° |
| 2026-05-06 11:17 | 28.82484 | 42.45638 | 38045 ft | 463 kts | 302° |
| 2026-05-06 11:18 | 28.86835 | 42.40254 | 38078 ft | 463 kts | 301° |
| 2026-05-06 11:18 | 28.91209 | 42.34831 | 38050 ft | 463 kts | 301° |
| 2026-05-06 11:19 | 28.95538 | 42.29453 | 38048 ft | 463 kts | 301° |